Pays
Station

 

Conditions  météo  pour  Egilsstadir  -  Islande    Islande

  
13 °C
    
 
 

METAR pour Egilsstadir :

BIEG 231700Z 16008G18KT 9999 FEW020 BKN039 13/08 Q1012 RMK RMK WIND GAGNHEIDI 11009KT

 

Voici le bulletin pour Egilsstadir - Islande.
 
Le bulletin a été fait il y a 43 minutes, à 17:00 UTC .
Le vent soufflait à la vitesse de 4.1 mètres par seconde avec des rafales jusqu'à 9.3 mètres par seconde de Sud/Sud-est (160°).
 
La température était de 13 °C, avec un point de rosée à 8 °C.
La pression atmosphérique était de 1012 hPa.
L'humidité relative était de 71.6%.
 
Il y avait 1 à 2/8ème de nébulosité à une hauteur de 610 mètres et 5 à 7/8ème de nébulosité à une hauteur de 1189 mètres.
 
La visibilité globale était de supérieure à 10 kilomètres.
 

 
 
 

Pays :   A   B   C   D   E   F   G   H   I   J   K   L   M   N   O   P   Q   R   S   T   U   V   W   Y   Z

 

Partenaires :  Info Météo avec Met'info
Météo Marine avec MeteoMarine.net
Infos Site  |  Infos Légales  |  Crédits  |  Confidentialité
Contactez-nous  |  Ajouter aux favoris
© 2013-2019 METAR - Tous droits réservés